Time;durP1;ratioP1;P1;durP2;ratioP2;P2;SDS_P1;SDS_P2;PMS_P1;PMS_P2;Temp;Humidity;BMP_temperature;BMP_pressure;BME280_temperature;BME280_humidity;BME280_pressure;Samples;Min_cycle;Max_cycle;Signal;HPM_P1;HPM_P2
2022/07/30 00:01:20;;;;;;;6.03;2.60;;;11.00;59.40;;;;;;4990382;28;20190;-77
2022/07/30 00:03:48;;;;;;;11.20;2.60;;;11.20;59.20;;;;;;4975432;28;20639;-80
2022/07/30 00:06:15;;;;;;;6.70;2.23;;;11.40;58.10;;;;;;4991085;28;21835;-77
2022/07/30 00:08:42;;;;;;;6.27;2.37;;;11.50;57.40;;;;;;4991868;28;20188;-78
2022/07/30 00:11:10;;;;;;;5.23;2.70;;;11.60;57.90;;;;;;4989319;28;20661;-78
2022/07/30 00:13:38;;;;;;;4.23;2.50;;;11.70;57.20;;;;;;4984160;28;20181;-79
2022/07/30 00:16:06;;;;;;;8.23;2.43;;;11.80;57.00;;;;;;4992470;28;20186;-77
2022/07/30 00:18:33;;;;;;;9.60;2.40;;;11.90;56.90;;;;;;4987552;28;20192;-77
2022/07/30 00:21:01;;;;;;;11.33;2.50;;;12.20;56.80;;;;;;4992956;28;20186;-78
2022/07/30 00:23:28;;;;;;;7.43;2.80;;;12.20;56.30;;;;;;4985748;28;20244;-79
2022/07/30 00:25:55;;;;;;;9.93;2.80;;;12.30;56.50;;;;;;4982157;28;20185;-80
2022/07/30 00:28:23;;;;;;;9.37;2.83;;;12.40;55.50;;;;;;4992349;28;20185;-76
2022/07/30 00:30:50;;;;;;;5.80;2.50;;;12.50;55.20;;;;;;4984263;28;20192;-77
2022/07/30 00:33:17;;;;;;;4.37;2.47;;;12.50;55.40;;;;;;4996022;28;20185;-78
2022/07/30 00:35:45;;;;;;;6.90;2.03;;;12.70;54.90;;;;;;4996267;28;20174;-78
2022/07/30 00:38:12;;;;;;;6.97;2.53;;;12.80;55.10;;;;;;4994475;28;20185;-80
2022/07/30 00:40:41;;;;;;;6.70;2.30;;;13.00;54.20;;;;;;4999443;28;20508;-79
2022/07/30 00:43:13;;;;;;;6.87;2.13;;;13.00;54.70;;;;;;4992561;28;20221;-81
2022/07/30 00:45:40;;;;;;;8.50;2.47;;;13.10;54.00;;;;;;5007968;28;20201;-75
2022/07/30 00:48:07;;;;;;;6.67;2.53;;;13.30;54.30;;;;;;5006812;28;20213;-77
2022/07/30 00:50:35;;;;;;;5.23;2.13;;;13.30;54.10;;;;;;5009053;28;20214;-78
2022/07/30 00:53:02;;;;;;;10.50;2.70;;;13.30;54.20;;;;;;4993790;28;20261;-76
2022/07/30 00:55:30;;;;;;;7.83;2.30;;;13.50;54.10;;;;;;4985523;28;20193;-79
2022/07/30 00:57:57;;;;;;;7.40;2.00;;;13.70;54.40;;;;;;4996193;28;20588;-77
2022/07/30 01:00:25;;;;;;;5.73;1.83;;;13.80;53.90;;;;;;4995309;28;20185;-76
2022/07/30 01:02:52;;;;;;;7.60;2.13;;;13.80;53.90;;;;;;4996056;28;20209;-76
2022/07/30 01:05:20;;;;;;;8.20;2.07;;;14.00;53.20;;;;;;4995877;28;20200;-78
2022/07/30 01:07:47;;;;;;;7.53;2.40;;;14.10;51.80;;;;;;4995046;28;20190;-77
2022/07/30 01:10:15;;;;;;;6.57;1.87;;;14.20;52.20;;;;;;4995330;28;20186;-79
2022/07/30 01:12:47;;;;;;;10.50;2.13;;;14.20;52.60;;;;;;4996415;28;20197;-79
2022/07/30 01:15:19;;;;;;;4.70;1.87;;;14.30;53.10;;;;;;4996149;28;20182;-77
2022/07/30 01:17:52;;;;;;;6.50;1.93;;;14.50;51.60;;;;;;4994514;28;20181;-82
2022/07/30 01:20:29;;;;;;;6.97;2.27;;;14.40;51.00;;;;;;4992781;28;20186;-83
2022/07/30 01:23:19;;;;;;;6.03;1.70;;;14.50;51.30;;;;;;4991462;28;20628;-74
2022/07/30 01:26:16;;;;;;;5.10;1.80;;;14.80;51.10;;;;;;4991885;28;20189;-79
2022/07/30 01:28:50;;;;;;;7.03;1.93;;;15.00;50.40;;;;;;4990209;28;20183;-80
2022/07/30 01:31:20;;;;;;;11.77;1.80;;;15.30;49.90;;;;;;4993638;28;20231;-82
2022/07/30 01:33:49;;;;;;;5.17;2.10;;;15.40;50.40;;;;;;4991692;28;20186;-82
2022/07/30 01:36:20;;;;;;;6.23;2.33;;;15.70;48.70;;;;;;5010529;28;20177;-78
2022/07/30 01:38:56;;;;;;;7.00;2.13;;;15.40;48.20;;;;;;5013585;28;20219;-81
2022/07/30 01:41:28;;;;;;;7.77;1.80;;;15.40;49.10;;;;;;5009599;28;20647;-83
2022/07/30 01:44:03;;;;;;;7.07;1.53;;;15.60;48.30;;;;;;5011351;28;20217;-81
2022/07/30 01:46:36;;;;;;;3.27;1.70;;;15.80;46.50;;;;;;5015507;28;20176;-82
2022/07/30 01:49:04;;;;;;;8.60;2.07;;;16.00;46.90;;;;;;4998049;28;20180;-83
2022/07/30 01:51:33;;;;;;;4.83;1.30;;;16.00;46.70;;;;;;4999067;28;20177;-81
2022/07/30 01:54:01;;;;;;;8.07;1.80;;;15.90;46.90;;;;;;5013632;28;20175;-81
2022/07/30 01:56:29;;;;;;;5.00;1.70;;;16.20;46.90;;;;;;5015264;28;20182;-81
2022/07/30 01:58:58;;;;;;;7.13;1.53;;;16.30;46.30;;;;;;5014529;28;20580;-82
2022/07/30 02:01:25;;;;;;;4.10;1.70;;;16.00;45.70;;;;;;5015201;28;20188;-84
2022/07/30 02:03:53;;;;;;;4.27;1.80;;;16.40;44.90;;;;;;5015181;28;20227;-81
2022/07/30 02:06:25;;;;;;;7.23;1.53;;;16.40;44.90;;;;;;5015308;28;20184;-80
2022/07/30 02:08:58;;;;;;;7.90;1.80;;;16.80;44.00;;;;;;5015487;28;20177;-82
2022/07/30 02:14:49;;;;;;;6.83;1.30;;;16.80;41.20;;;;;;5014946;28;20192;-77
2022/07/30 02:17:25;;;;;;;3.00;1.30;;;17.00;40.70;;;;;;5011868;28;20184;-83
2022/07/30 02:19:58;;;;;;;4.43;1.50;;;16.20;43.20;;;;;;5002751;28;20303;-84
2022/07/30 02:22:36;;;;;;;3.87;1.30;;;16.60;42.80;;;;;;5015235;28;20304;-83
2022/07/30 02:25:07;;;;;;;5.87;1.30;;;16.10;44.40;;;;;;4997015;28;20193;-83
2022/07/30 02:27:42;;;;;;;4.90;1.60;;;16.10;44.10;;;;;;5014919;28;20253;-84
2022/07/30 02:30:10;;;;;;;6.30;1.30;;;16.60;44.10;;;;;;5009885;28;20183;-85
2022/07/30 02:32:42;;;;;;;4.73;2.00;;;17.10;42.70;;;;;;4999514;28;20334;-80
2022/07/30 02:35:19;;;;;;;4.90;1.70;;;17.50;42.40;;;;;;4994850;28;20181;-83
2022/07/30 02:37:52;;;;;;;6.43;1.53;;;18.00;40.60;;;;;;4994703;28;20524;-81
2022/07/30 02:40:21;;;;;;;6.37;1.37;;;18.10;40.20;;;;;;4994252;28;20184;-80
2022/07/30 02:42:59;;;;;;;5.57;1.87;;;18.50;40.40;;;;;;4994846;28;20205;-83
2022/07/30 02:45:28;;;;;;;7.57;1.50;;;18.80;39.40;;;;;;4995056;28;20173;-83
2022/07/30 02:48:00;;;;;;;6.67;1.83;;;18.20;38.50;;;;;;4994048;28;20178;-80
2022/07/30 02:50:28;;;;;;;2.93;1.17;;;17.90;40.20;;;;;;4994959;28;20276;-80
2022/07/30 02:53:02;;;;;;;3.23;1.23;;;18.10;39.80;;;;;;4994565;28;20636;-79
2022/07/30 02:55:34;;;;;;;5.93;1.60;;;18.30;39.70;;;;;;4994605;28;20193;-83
2022/07/30 02:58:04;;;;;;;11.73;2.00;;;18.30;38.90;;;;;;4994730;28;20225;-83
2022/07/30 03:00:36;;;;;;;4.07;1.37;;;18.40;39.30;;;;;;4994878;28;20200;-80
2022/07/30 03:03:06;;;;;;;3.23;1.53;;;18.20;39.40;;;;;;4994635;28;20598;-82
2022/07/30 03:05:35;;;;;;;4.97;1.40;;;17.70;39.40;;;;;;4994408;28;20225;-82
2022/07/30 03:08:04;;;;;;;3.03;1.37;;;17.70;41.00;;;;;;4994082;28;20228;-81
2022/07/30 03:10:33;;;;;;;8.00;1.27;;;17.80;39.70;;;;;;4994014;28;20632;-79
2022/07/30 03:13:02;;;;;;;9.50;1.27;;;17.70;40.60;;;;;;4994234;28;20185;-76
2022/07/30 03:15:33;;;;;;;7.03;1.70;;;17.40;41.00;;;;;;4994124;28;20305;-81
2022/07/30 03:18:01;;;;;;;5.80;1.50;;;17.30;41.00;;;;;;4993551;28;20229;-81
2022/07/30 03:20:33;;;;;;;3.47;1.20;;;17.50;40.50;;;;;;4994263;28;20174;-80
2022/07/30 03:23:02;;;;;;;5.53;1.43;;;17.70;40.40;;;;;;4994187;28;20304;-80
2022/07/30 03:25:32;;;;;;;3.83;1.10;;;17.60;40.90;;;;;;4994120;28;20554;-80
2022/07/30 03:28:02;;;;;;;5.13;1.37;;;17.70;40.00;;;;;;4989748;28;20186;-84
2022/07/30 03:30:32;;;;;;;4.23;1.67;;;18.10;39.80;;;;;;4993797;28;20272;-83
2022/07/30 03:33:00;;;;;;;4.73;1.70;;;18.10;39.20;;;;;;4992843;28;20291;-82
2022/07/30 03:35:28;;;;;;;5.10;1.47;;;18.30;39.90;;;;;;4993910;28;20581;-82
2022/07/30 03:37:56;;;;;;;6.47;1.93;;;17.90;39.80;;;;;;4993594;28;20543;-85
2022/07/30 03:40:24;;;;;;;3.63;1.27;;;18.10;39.60;;;;;;4990800;28;20182;-82
2022/07/30 03:42:52;;;;;;;3.70;1.10;;;18.10;39.30;;;;;;4993800;28;20209;-82
2022/07/30 03:45:20;;;;;;;6.27;1.70;;;18.60;38.90;;;;;;4976561;28;20178;-83
2022/07/30 03:47:48;;;;;;;4.33;1.20;;;19.00;38.30;;;;;;4982400;28;20186;-80
2022/07/30 03:50:15;;;;;;;4.77;1.30;;;18.80;38.60;;;;;;4987750;28;20193;-82
2022/07/30 03:52:43;;;;;;;4.33;1.40;;;19.10;38.70;;;;;;4992241;28;20189;-84
2022/07/30 03:55:12;;;;;;;6.90;1.57;;;19.10;38.20;;;;;;4994286;28;20209;-82
2022/07/30 03:57:40;;;;;;;4.37;1.50;;;18.80;38.00;;;;;;4993463;28;20190;-80
2022/07/30 04:00:13;;;;;;;4.77;1.20;;;18.80;39.30;;;;;;4992122;28;20178;-78
2022/07/30 04:02:45;;;;;;;2.17;1.00;;;18.80;37.80;;;;;;4993291;28;20198;-81
2022/07/30 04:05:14;;;;;;;5.10;1.20;;;18.80;38.80;;;;;;4989209;28;20224;-80
2022/07/30 04:07:42;;;;;;;4.33;0.97;;;19.20;37.40;;;;;;4993611;28;20182;-82
2022/07/30 04:10:09;;;;;;;3.77;1.30;;;19.00;38.00;;;;;;4993127;28;20239;-81
2022/07/30 04:12:37;;;;;;;3.10;1.10;;;18.90;38.70;;;;;;4993502;28;20190;-83
2022/07/30 04:15:05;;;;;;;2.00;1.00;;;19.20;38.00;;;;;;4993904;28;20186;-84
2022/07/30 04:17:37;;;;;;;3.07;1.00;;;19.50;36.90;;;;;;4993397;28;20205;-82
2022/07/30 04:20:21;;;;;;;5.17;1.40;;;19.80;36.80;;;;;;4993449;28;20174;-83
2022/07/30 04:22:50;;;;;;;2.67;0.90;;;19.70;37.40;;;;;;4973895;28;20560;-83
2022/07/30 04:25:19;;;;;;;4.13;1.30;;;20.00;36.70;;;;;;4983817;28;20181;-83
2022/07/30 04:27:47;;;;;;;4.00;1.53;;;19.90;36.60;;;;;;4993995;28;20174;-81
2022/07/30 04:30:14;;;;;;;2.53;0.90;;;20.00;35.50;;;;;;4993111;28;20237;-82
2022/07/30 04:32:42;;;;;;;2.57;0.80;;;20.30;35.20;;;;;;4993145;28;20248;-80
2022/07/30 04:35:09;;;;;;;6.63;1.10;;;20.80;34.10;;;;;;4993387;28;20178;-82
2022/07/30 04:37:37;;;;;;;3.70;1.00;;;20.80;34.40;;;;;;4992354;28;20182;-80
2022/07/30 04:40:23;;;;;;;3.43;1.23;;;20.80;34.60;;;;;;5057055;27;20526;-81
2022/07/30 04:42:51;;;;;;;4.17;0.90;;;20.80;34.10;;;;;;5070862;28;20182;-83
2022/07/30 04:45:21;;;;;;;2.33;0.97;;;20.00;34.90;;;;;;5069729;28;20210;-82
2022/07/30 04:47:52;;;;;;;1.83;0.90;;;20.40;35.20;;;;;;5056901;28;20599;-83
2022/07/30 04:50:24;;;;;;;5.47;1.20;;;19.80;35.50;;;;;;5057454;28;20180;-80
2022/07/30 04:52:54;;;;;;;2.03;0.90;;;20.30;34.90;;;;;;5068107;28;20179;-78
2022/07/30 04:55:22;;;;;;;3.07;1.00;;;21.50;33.60;;;;;;5054877;28;20183;-80
2022/07/30 04:57:52;;;;;;;4.27;1.13;;;21.90;32.60;;;;;;5038265;28;20200;-80
2022/07/30 05:00:20;;;;;;;6.20;1.20;;;21.70;33.50;;;;;;5029635;28;20311;-80
2022/07/30 05:02:50;;;;;;;3.53;1.30;;;22.50;31.50;;;;;;5052210;28;20172;-80
2022/07/30 05:05:19;;;;;;;4.23;1.10;;;22.60;31.40;;;;;;5050392;28;20267;-81
2022/07/30 05:07:46;;;;;;;2.70;1.00;;;22.30;31.50;;;;;;5055821;28;20751;-80
2022/07/30 05:10:14;;;;;;;7.27;1.00;;;22.40;31.00;;;;;;5058282;28;20682;-82
2022/07/30 05:12:41;;;;;;;2.10;1.07;;;22.30;31.50;;;;;;5057384;28;20181;-84
2022/07/30 05:15:10;;;;;;;5.27;1.40;;;21.30;33.00;;;;;;5046970;28;20184;-81
2022/07/30 05:17:38;;;;;;;4.43;1.60;;;20.80;33.90;;;;;;5060638;28;20183;-82
2022/07/30 05:20:05;;;;;;;4.63;1.47;;;20.90;34.00;;;;;;5051787;28;20214;-82
2022/07/30 05:22:33;;;;;;;3.60;1.17;;;21.60;33.50;;;;;;5062798;28;20586;-83
2022/07/30 05:25:00;;;;;;;3.47;0.90;;;21.20;33.90;;;;;;5060125;28;20598;-83
2022/07/30 05:27:28;;;;;;;5.00;1.10;;;21.50;32.90;;;;;;5043159;28;20180;-79
2022/07/30 05:29:55;;;;;;;4.10;1.30;;;20.50;34.50;;;;;;5054665;28;20183;-80
2022/07/30 05:32:22;;;;;;;4.43;1.30;;;21.80;33.00;;;;;;5056110;28;20246;-80
2022/07/30 05:34:50;;;;;;;3.13;1.30;;;22.10;33.00;;;;;;5053453;28;20184;-82
2022/07/30 05:37:17;;;;;;;4.47;1.23;;;22.40;31.90;;;;;;5054144;28;20183;-81
2022/07/30 05:39:44;;;;;;;3.30;1.27;;;22.30;32.00;;;;;;5044329;28;20566;-85
2022/07/30 05:42:12;;;;;;;5.87;1.20;;;21.50;32.70;;;;;;5051232;28;20187;-83
2022/07/30 05:44:39;;;;;;;6.33;1.57;;;21.30;32.90;;;;;;5046958;28;20176;-81
2022/07/30 05:47:07;;;;;;;3.93;1.10;;;21.70;32.90;;;;;;5055996;28;20176;-81
2022/07/30 05:49:34;;;;;;;2.60;1.10;;;21.40;33.40;;;;;;5033142;28;20180;-81
2022/07/30 05:52:01;;;;;;;3.47;0.90;;;22.10;32.00;;;;;;5029545;28;20523;-82
2022/07/30 05:54:28;;;;;;;3.37;1.00;;;21.80;32.20;;;;;;5029854;28;20184;-79
2022/07/30 05:56:56;;;;;;;2.10;1.23;;;22.40;31.70;;;;;;5038225;28;20536;-79
2022/07/30 05:59:23;;;;;;;3.20;1.07;;;22.70;30.80;;;;;;5052800;28;20276;-78
2022/07/30 06:01:50;;;;;;;3.10;1.00;;;23.10;30.70;;;;;;5037282;28;20177;-78
2022/07/30 06:04:18;;;;;;;5.10;1.57;;;22.80;30.80;;;;;;5029030;28;20184;-77
2022/07/30 06:06:45;;;;;;;5.43;1.33;;;22.50;31.60;;;;;;5046380;28;20274;-78
2022/07/30 06:09:12;;;;;;;4.43;1.40;;;22.40;32.50;;;;;;5054783;28;20290;-79
2022/07/30 06:11:40;;;;;;;3.23;1.40;;;22.30;31.90;;;;;;5054426;28;20202;-80
2022/07/30 06:14:07;;;;;;;2.13;1.07;;;21.20;33.70;;;;;;5041806;28;20182;-78
2022/07/30 06:16:34;;;;;;;2.73;1.10;;;20.80;34.20;;;;;;5041058;28;20179;-79
2022/07/30 06:19:02;;;;;;;2.90;1.47;;;20.20;35.20;;;;;;5054805;28;20638;-80
2022/07/30 06:21:29;;;;;;;3.03;1.00;;;18.90;37.50;;;;;;5054732;28;20176;-79
2022/07/30 06:23:56;;;;;;;1.83;0.80;;;18.20;38.90;;;;;;5045354;28;20184;-80
2022/07/30 06:26:24;;;;;;;3.97;1.60;;;17.50;40.40;;;;;;5050548;28;20187;-83
2022/07/30 06:28:51;;;;;;;4.27;1.87;;;16.80;45.60;;;;;;5050367;28;20437;-79
2022/07/30 06:31:18;;;;;;;10.83;1.43;;;16.40;48.00;;;;;;5053390;28;20567;-78
2022/07/30 06:33:46;;;;;;;7.37;2.13;;;16.30;49.20;;;;;;5053683;28;20182;-80
2022/07/30 06:36:13;;;;;;;6.00;1.60;;;16.40;50.30;;;;;;5047768;28;20218;-79
2022/07/30 06:38:41;;;;;;;3.77;1.73;;;16.30;51.80;;;;;;5054176;28;20254;-81
2022/07/30 06:41:08;;;;;;;10.40;2.53;;;16.10;52.70;;;;;;5054356;28;20180;-83
2022/07/30 06:43:36;;;;;;;6.87;1.87;;;15.80;53.00;;;;;;5042014;28;20190;-80
2022/07/30 06:46:03;;;;;;;6.93;1.87;;;15.70;53.30;;;;;;5042811;28;20211;-82
2022/07/30 06:48:31;;;;;;;11.50;7.47;;;15.70;53.50;;;;;;5050561;28;20254;-80
2022/07/30 06:50:59;;;;;;;14.03;6.50;;;15.60;53.90;;;;;;5042584;28;20184;-82
2022/07/30 06:53:26;;;;;;;12.33;5.20;;;15.50;54.00;;;;;;5050266;28;20278;-79
2022/07/30 06:55:54;;;;;;;8.73;2.23;;;15.30;54.30;;;;;;5048582;28;20572;-80
2022/07/30 06:58:21;;;;;;;11.30;2.63;;;15.20;54.90;;;;;;5039076;28;20295;-81
2022/07/30 07:00:49;;;;;;;13.97;7.80;;;15.20;54.90;;;;;;5048015;28;20184;-81
2022/07/30 07:03:16;;;;;;;10.20;5.23;;;15.10;55.10;;;;;;5050759;28;20184;-78
2022/07/30 07:05:43;;;;;;;9.23;2.40;;;14.90;56.00;;;;;;5035315;28;20189;-79
2022/07/30 07:08:11;;;;;;;9.30;1.77;;;14.90;56.40;;;;;;5041964;28;20643;-79
2022/07/30 07:10:38;;;;;;;5.37;1.77;;;14.80;56.30;;;;;;5047234;28;20695;-80
2022/07/30 07:13:05;;;;;;;5.27;1.97;;;14.70;56.50;;;;;;5031902;28;20181;-81
2022/07/30 07:15:33;;;;;;;8.33;2.10;;;14.60;56.80;;;;;;5041324;28;20671;-79
2022/07/30 07:18:00;;;;;;;9.00;2.00;;;14.50;57.30;;;;;;5050447;28;20180;-80
2022/07/30 07:20:27;;;;;;;6.30;1.70;;;14.40;57.90;;;;;;5053553;28;20263;-83
2022/07/30 07:22:55;;;;;;;5.73;1.67;;;14.30;58.20;;;;;;5052683;28;20536;-80
2022/07/30 07:25:22;;;;;;;7.57;1.90;;;14.30;58.70;;;;;;5041542;28;20529;-81
2022/07/30 07:27:50;;;;;;;6.00;2.00;;;14.20;59.20;;;;;;5053194;28;20234;-80
2022/07/30 07:30:17;;;;;;;6.70;1.80;;;14.20;59.30;;;;;;5048331;28;20189;-79
2022/07/30 07:32:44;;;;;;;7.53;1.97;;;14.10;60.10;;;;;;5045882;28;20185;-78
2022/07/30 07:35:12;;;;;;;7.87;1.90;;;14.10;60.10;;;;;;5052334;28;20661;-81
2022/07/30 07:37:40;;;;;;;11.73;2.57;;;14.00;60.20;;;;;;5053517;28;20188;-77
2022/07/30 07:40:08;;;;;;;7.20;2.37;;;13.90;60.10;;;;;;5049180;28;20232;-79
2022/07/30 07:42:35;;;;;;;7.20;2.10;;;13.90;60.90;;;;;;5036771;28;20213;-78
2022/07/30 07:45:02;;;;;;;13.13;2.30;;;13.90;61.00;;;;;;5048567;28;20654;-78
2022/07/30 07:47:31;;;;;;;9.67;2.33;;;13.90;61.40;;;;;;5046497;28;20589;-78
2022/07/30 07:49:58;;;;;;;8.07;2.23;;;13.80;61.50;;;;;;5031027;28;20197;-77
2022/07/30 07:52:25;;;;;;;8.73;2.37;;;13.70;61.40;;;;;;5053178;28;20176;-77
2022/07/30 07:54:52;;;;;;;8.27;2.70;;;13.70;62.00;;;;;;5052462;28;20179;-77
2022/07/30 07:57:20;;;;;;;12.80;2.47;;;13.60;62.30;;;;;;5052215;28;20175;-78
2022/07/30 07:59:47;;;;;;;10.17;2.90;;;13.60;62.50;;;;;;5040265;28;20664;-80
2022/07/30 08:02:14;;;;;;;8.97;2.33;;;13.60;63.10;;;;;;5049201;28;20172;-78
2022/07/30 08:04:42;;;;;;;7.67;2.40;;;13.50;63.80;;;;;;5042116;28;20575;-80
2022/07/30 08:07:09;;;;;;;7.03;3.33;;;13.50;63.90;;;;;;5038223;28;20185;-80
2022/07/30 08:09:36;;;;;;;13.30;4.27;;;13.30;64.00;;;;;;5051193;28;20203;-79
2022/07/30 08:12:04;;;;;;;11.23;3.87;;;13.30;64.80;;;;;;5043225;28;20179;-80
2022/07/30 08:14:31;;;;;;;12.60;3.93;;;13.20;65.50;;;;;;5041026;28;20180;-78
2022/07/30 08:16:59;;;;;;;11.30;3.63;;;13.10;66.10;;;;;;5041412;28;20176;-80
2022/07/30 08:19:26;;;;;;;11.83;4.13;;;13.10;66.40;;;;;;5039621;28;20286;-78
2022/07/30 08:21:53;;;;;;;11.57;2.93;;;13.10;66.90;;;;;;5032075;28;20230;-78
2022/07/30 08:24:23;;;;;;;6.03;2.90;;;12.90;67.00;;;;;;5044191;28;20177;-79
2022/07/30 08:26:51;;;;;;;13.70;2.83;;;12.80;67.60;;;;;;5028131;28;20188;-80
2022/07/30 08:29:18;;;;;;;5.73;2.50;;;12.80;67.90;;;;;;5049495;28;20179;-79
2022/07/30 08:31:46;;;;;;;11.70;3.20;;;12.80;68.50;;;;;;5043518;28;20180;-77
2022/07/30 08:34:13;;;;;;;11.27;3.10;;;12.80;68.30;;;;;;5045315;28;20340;-77
2022/07/30 08:36:41;;;;;;;10.17;2.33;;;12.80;68.60;;;;;;5032167;28;20173;-78
2022/07/30 08:39:08;;;;;;;10.63;3.20;;;12.80;69.00;;;;;;5037183;28;20239;-77
2022/07/30 08:41:40;;;;;;;8.83;2.73;;;12.70;68.90;;;;;;5048682;28;20176;-79
2022/07/30 08:44:11;;;;;;;10.37;3.33;;;12.70;69.00;;;;;;5034080;28;20263;-79
2022/07/30 08:46:42;;;;;;;13.03;3.57;;;12.70;69.40;;;;;;5039481;28;20225;-80
2022/07/30 08:49:11;;;;;;;11.77;4.17;;;12.70;69.30;;;;;;5045872;28;20183;-78
2022/07/30 08:51:39;;;;;;;9.70;4.00;;;12.70;69.30;;;;;;5051995;28;20238;-79
2022/07/30 08:54:06;;;;;;;17.03;4.70;;;12.60;69.60;;;;;;5042660;28;20530;-78
2022/07/30 08:56:34;;;;;;;13.00;4.63;;;12.50;70.10;;;;;;5042721;28;20192;-77
2022/07/30 08:59:02;;;;;;;10.90;4.77;;;12.50;69.70;;;;;;5042050;28;20283;-80
2022/07/30 09:01:29;;;;;;;8.93;4.73;;;12.50;69.90;;;;;;5038862;28;20259;-79
2022/07/30 09:03:57;;;;;;;12.43;4.50;;;12.50;69.40;;;;;;5052456;28;20511;-79
2022/07/30 09:06:24;;;;;;;12.83;4.40;;;12.50;69.30;;;;;;5045511;28;20291;-79
2022/07/30 09:08:51;;;;;;;12.53;4.63;;;12.50;69.50;;;;;;5040352;28;20184;-80
2022/07/30 09:11:19;;;;;;;12.83;4.33;;;12.50;69.40;;;;;;5052366;28;20168;-78
2022/07/30 09:13:47;;;;;;;19.43;5.73;;;12.40;69.60;;;;;;5041530;28;20233;-80
2022/07/30 09:16:25;;;;;;;20.60;6.87;;;12.50;69.40;;;;;;5038030;28;20245;-78
2022/07/30 09:18:54;;;;;;;17.87;6.60;;;12.40;69.10;;;;;;5043906;28;20199;-79
2022/07/30 09:21:23;;;;;;;14.87;6.37;;;12.40;69.00;;;;;;5038185;28;20212;-78
2022/07/30 09:24:04;;;;;;;14.57;5.90;;;12.40;69.10;;;;;;5042260;28;20707;-80
2022/07/30 09:26:50;;;;;;;20.10;7.40;;;12.40;69.40;;;;;;5042400;28;20184;-80
2022/07/30 09:29:20;;;;;;;17.80;6.63;;;12.30;69.50;;;;;;5050660;28;20176;-79
2022/07/30 09:32:01;;;;;;;11.97;5.70;;;12.30;69.90;;;;;;5052223;28;20176;-81
2022/07/30 09:34:39;;;;;;;17.47;6.23;;;12.30;70.10;;;;;;5047756;28;20557;-81
2022/07/30 09:37:09;;;;;;;11.57;5.87;;;12.20;70.50;;;;;;5044729;28;20172;-77
2022/07/30 09:39:41;;;;;;;43.13;25.17;;;12.10;70.90;;;;;;5046736;28;20223;-76
2022/07/30 09:42:26;;;;;;;21.70;9.27;;;12.00;71.40;;;;;;5043520;28;20214;-75
2022/07/30 09:45:11;;;;;;;19.37;7.80;;;12.00;71.70;;;;;;5050398;28;20175;-75
2022/07/30 09:47:41;;;;;;;18.53;6.87;;;11.90;71.70;;;;;;5055966;28;20172;-76
2022/07/30 09:50:14;;;;;;;12.70;6.83;;;11.80;71.90;;;;;;5040048;28;20590;-75
2022/07/30 09:52:44;;;;;;;12.43;6.10;;;11.80;72.20;;;;;;5040886;28;20195;-77
2022/07/30 09:55:13;;;;;;;15.40;6.97;;;11.70;72.80;;;;;;5050788;28;20180;-75
2022/07/30 09:57:58;;;;;;;13.67;7.37;;;11.70;73.10;;;;;;5052596;28;20180;-76
2022/07/30 10:00:27;;;;;;;13.57;6.57;;;11.70;73.30;;;;;;5030653;28;20418;-75
2022/07/30 10:02:55;;;;;;;19.57;8.43;;;11.70;73.70;;;;;;5041273;28;20258;-75
2022/07/30 10:05:23;;;;;;;15.47;7.50;;;11.70;74.00;;;;;;5042400;28;20189;-77
2022/07/30 10:07:54;;;;;;;18.20;8.30;;;11.60;73.90;;;;;;5054732;28;20207;-75
2022/07/30 10:10:26;;;;;;;24.47;9.93;;;11.60;74.00;;;;;;5046264;28;20185;-76
2022/07/30 10:13:02;;;;;;;19.33;8.97;;;11.40;74.10;;;;;;5047765;28;20187;-79
2022/07/30 10:15:35;;;;;;;18.23;8.97;;;11.40;74.30;;;;;;5039494;28;20180;-80
2022/07/30 10:18:04;;;;;;;17.33;7.73;;;11.40;74.60;;;;;;5033947;28;20210;-81
2022/07/30 10:20:32;;;;;;;15.77;8.13;;;11.30;74.80;;;;;;5047384;28;20184;-78
2022/07/30 10:23:00;;;;;;;19.77;10.10;;;11.30;74.80;;;;;;5050725;28;20604;-81
2022/07/30 10:25:27;;;;;;;22.13;14.60;;;11.30;75.00;;;;;;5052672;28;20176;-82
2022/07/30 10:27:54;;;;;;;18.17;10.13;;;11.20;75.30;;;;;;5033510;28;20180;-80
2022/07/30 10:30:22;;;;;;;21.57;9.63;;;11.20;75.50;;;;;;5050829;28;20187;-80
2022/07/30 10:32:51;;;;;;;16.83;9.43;;;11.20;75.80;;;;;;5040286;28;20262;-80
2022/07/30 10:35:18;;;;;;;21.53;9.43;;;11.20;76.00;;;;;;5053853;28;20179;-80
2022/07/30 10:37:50;;;;;;;15.77;8.63;;;11.20;76.00;;;;;;5041192;28;20271;-78
2022/07/30 10:40:21;;;;;;;20.87;9.10;;;11.10;76.20;;;;;;5048325;28;20224;-78
2022/07/30 10:43:10;;;;;;;17.37;10.03;;;11.20;76.40;;;;;;5045182;28;20183;-78
2022/07/30 10:46:13;;;;;;;24.97;13.23;;;11.10;76.60;;;;;;5048621;28;20531;-78
2022/07/30 10:48:41;;;;;;;23.80;11.10;;;11.10;76.80;;;;;;5039214;28;20262;-77
2022/07/30 10:51:09;;;;;;;21.27;8.93;;;11.10;76.80;;;;;;5043293;28;20203;-81
2022/07/30 10:53:46;;;;;;;15.60;7.70;;;11.10;77.20;;;;;;5049759;28;20676;-77
2022/07/30 10:56:22;;;;;;;18.03;6.80;;;11.00;77.00;;;;;;5043553;28;20183;-82
2022/07/30 10:59:08;;;;;;;17.90;8.10;;;11.00;77.40;;;;;;5032037;28;20260;-78
2022/07/30 11:01:47;;;;;;;18.87;7.77;;;11.00;77.70;;;;;;5028900;28;20195;-80
2022/07/30 11:04:18;;;;;;;14.03;6.70;;;11.00;77.80;;;;;;5040414;28;20244;-78
2022/07/30 11:06:46;;;;;;;19.43;9.70;;;11.00;77.60;;;;;;5036066;28;20216;-77
2022/07/30 11:09:39;;;;;;;32.67;19.00;;;11.00;77.80;;;;;;5051474;28;20184;-77
2022/07/30 11:12:08;;;;;;;19.53;8.33;;;11.00;77.90;;;;;;5036780;28;20270;-80
2022/07/30 11:14:47;;;;;;;15.73;7.13;;;11.00;77.70;;;;;;5044407;28;20766;-78
2022/07/30 11:17:16;;;;;;;12.83;5.67;;;11.10;77.50;;;;;;5040622;28;20279;-79
2022/07/30 11:20:13;;;;;;;14.30;6.70;;;11.00;77.30;;;;;;5049790;28;20218;-78
2022/07/30 11:22:43;;;;;;;12.70;6.40;;;11.10;77.80;;;;;;5044564;28;20188;-78
2022/07/30 11:25:33;;;;;;;14.93;6.57;;;11.00;77.20;;;;;;5047579;28;20211;-77
2022/07/30 11:28:00;;;;;;;14.40;6.90;;;11.00;77.60;;;;;;5045506;28;20188;-77
2022/07/30 11:30:33;;;;;;;16.10;7.33;;;10.90;77.80;;;;;;5040603;28;20283;-81
2022/07/30 11:33:09;;;;;;;16.20;7.23;;;10.90;78.00;;;;;;5041483;28;20626;-80
2022/07/30 11:35:36;;;;;;;18.70;7.17;;;10.80;78.60;;;;;;5036031;28;20183;-77
2022/07/30 11:38:04;;;;;;;14.37;6.53;;;10.80;78.80;;;;;;5031665;28;20668;-78
2022/07/30 11:40:32;;;;;;;13.73;8.07;;;10.80;78.90;;;;;;5033243;28;20192;-77
2022/07/30 11:43:19;;;;;;;40.83;26.90;;;10.80;78.90;;;;;;5051629;28;20529;-77
2022/07/30 11:45:49;;;;;;;21.73;10.90;;;10.90;78.70;;;;;;5047560;28;20521;-77
2022/07/30 11:48:18;;;;;;;16.17;7.67;;;10.90;78.90;;;;;;5052730;28;20179;-78
2022/07/30 11:50:47;;;;;;;18.47;6.47;;;10.90;78.70;;;;;;5036404;28;20942;-77
2022/07/30 11:53:23;;;;;;;12.30;5.67;;;10.80;79.00;;;;;;5024458;28;20187;-79
2022/07/30 11:56:01;;;;;;;14.90;5.57;;;10.90;78.70;;;;;;5045539;28;20192;-79
2022/07/30 11:58:34;;;;;;;14.27;5.90;;;10.80;78.80;;;;;;5028083;28;20289;-80
2022/07/30 12:01:21;;;;;;;13.40;6.13;;;10.90;79.10;;;;;;5043922;28;20641;-79
2022/07/30 12:03:48;;;;;;;13.33;5.23;;;10.80;78.90;;;;;;5027212;28;20183;-78
2022/07/30 12:06:18;;;;;;;13.90;5.40;;;10.80;78.80;;;;;;5046474;28;20539;-78
2022/07/30 12:08:48;;;;;;;13.27;6.40;;;10.80;78.70;;;;;;5051903;28;20184;-81
2022/07/30 12:11:16;;;;;;;16.47;6.07;;;10.80;78.60;;;;;;5032942;28;20650;-79
2022/07/30 12:13:54;;;;;;;14.30;5.30;;;10.80;79.00;;;;;;5037901;28;20187;-78
2022/07/30 12:16:21;;;;;;;14.17;5.60;;;10.80;78.60;;;;;;5033194;28;20699;-78
2022/07/30 12:18:48;;;;;;;12.20;5.80;;;10.70;78.90;;;;;;5041965;28;20215;-79
2022/07/30 12:21:16;;;;;;;10.40;5.10;;;10.60;78.70;;;;;;5029522;28;20193;-78
2022/07/30 12:23:54;;;;;;;13.13;5.90;;;10.60;79.00;;;;;;5048226;28;20192;-80
2022/07/30 12:26:28;;;;;;;13.73;6.27;;;10.50;79.60;;;;;;5035800;28;20187;-78
2022/07/30 12:29:00;;;;;;;15.80;6.60;;;10.40;79.60;;;;;;5051252;28;20172;-78
2022/07/30 12:31:28;;;;;;;13.33;6.70;;;10.40;79.70;;;;;;5035188;28;20279;-77
2022/07/30 12:33:55;;;;;;;14.10;7.40;;;10.40;79.80;;;;;;5050961;28;20172;-80
2022/07/30 12:36:32;;;;;;;10.90;6.73;;;10.30;79.90;;;;;;5041608;28;20184;-79
2022/07/30 12:39:00;;;;;;;14.40;6.57;;;10.20;80.20;;;;;;5052536;28;20302;-81
2022/07/30 12:41:57;;;;;;;19.03;5.93;;;10.20;80.20;;;;;;5046763;28;20183;-78
2022/07/30 12:44:43;;;;;;;11.23;5.67;;;10.20;80.90;;;;;;5039572;28;20252;-81
2022/07/30 12:47:23;;;;;;;10.10;5.07;;;10.10;80.60;;;;;;5047725;28;20649;-81
2022/07/30 12:49:51;;;;;;;12.10;4.50;;;10.10;81.20;;;;;;5046222;28;20179;-80
2022/07/30 12:52:28;;;;;;;11.90;4.70;;;10.10;81.10;;;;;;5052294;28;20183;-80
2022/07/30 12:55:16;;;;;;;12.37;5.17;;;10.00;81.30;;;;;;5052373;28;20172;-81
2022/07/30 12:58:04;;;;;;;15.73;4.97;;;10.00;81.20;;;;;;5044038;28;20184;-79
2022/07/30 13:00:46;;;;;;;12.43;4.70;;;10.10;81.50;;;;;;5040301;28;20219;-77
2022/07/30 13:03:22;;;;;;;13.70;5.03;;;10.10;81.80;;;;;;5055800;28;20187;-81